sensor_id;sensor_type;location;lat;lon;timestamp;P1;durP1;ratioP1;P2;durP2;ratioP2
27576;SDS011;15011;53.380;10.034;2023-06-19T00:04:55;8.25;;;7.45;;
27576;SDS011;15011;53.380;10.034;2023-06-19T00:09:55;8.93;;;8.13;;
27576;SDS011;15011;53.380;10.034;2023-06-19T00:14:56;9.80;;;8.83;;
27576;SDS011;15011;53.380;10.034;2023-06-19T00:19:56;9.03;;;8.27;;
27576;SDS011;15011;53.380;10.034;2023-06-19T00:24:56;9.13;;;8.20;;
27576;SDS011;15011;53.380;10.034;2023-06-19T00:29:57;9.18;;;8.00;;
27576;SDS011;15011;53.380;10.034;2023-06-19T00:35:02;9.13;;;8.23;;
27576;SDS011;15011;53.380;10.034;2023-06-19T00:40:03;9.48;;;8.57;;
27576;SDS011;15011;53.380;10.034;2023-06-19T00:45:04;10.20;;;9.27;;
27576;SDS011;15011;53.380;10.034;2023-06-19T00:50:05;10.07;;;9.23;;
27576;SDS011;15011;53.380;10.034;2023-06-19T00:55:06;9.57;;;8.48;;
27576;SDS011;15011;53.380;10.034;2023-06-19T01:00:08;10.00;;;8.98;;
27576;SDS011;15011;53.380;10.034;2023-06-19T01:05:10;9.32;;;8.40;;
27576;SDS011;15011;53.380;10.034;2023-06-19T01:10:16;9.50;;;8.70;;
27576;SDS011;15011;53.380;10.034;2023-06-19T01:15:19;9.60;;;8.55;;
27576;SDS011;15011;53.380;10.034;2023-06-19T01:20:20;10.77;;;9.70;;
27576;SDS011;15011;53.380;10.034;2023-06-19T01:25:20;10.33;;;9.43;;
27576;SDS011;15011;53.380;10.034;2023-06-19T01:30:20;9.47;;;8.63;;
27576;SDS011;15011;53.380;10.034;2023-06-19T01:35:22;9.85;;;8.95;;
27576;SDS011;15011;53.380;10.034;2023-06-19T01:40:24;10.13;;;9.20;;
27576;SDS011;15011;53.380;10.034;2023-06-19T01:45:27;9.70;;;8.77;;
27576;SDS011;15011;53.380;10.034;2023-06-19T01:50:28;11.40;;;10.20;;
27576;SDS011;15011;53.380;10.034;2023-06-19T01:55:29;10.23;;;9.20;;
27576;SDS011;15011;53.380;10.034;2023-06-19T02:00:30;10.30;;;9.30;;
27576;SDS011;15011;53.380;10.034;2023-06-19T02:05:35;10.48;;;9.57;;
27576;SDS011;15011;53.380;10.034;2023-06-19T02:10:40;9.40;;;8.60;;
27576;SDS011;15011;53.380;10.034;2023-06-19T02:15:40;10.90;;;9.93;;
27576;SDS011;15011;53.380;10.034;2023-06-19T02:20:41;11.13;;;10.07;;
27576;SDS011;15011;53.380;10.034;2023-06-19T02:25:42;11.37;;;10.37;;
27576;SDS011;15011;53.380;10.034;2023-06-19T02:30:42;11.07;;;9.97;;
27576;SDS011;15011;53.380;10.034;2023-06-19T02:35:42;11.07;;;9.97;;
27576;SDS011;15011;53.380;10.034;2023-06-19T02:40:44;11.48;;;10.40;;
27576;SDS011;15011;53.380;10.034;2023-06-19T02:45:44;10.97;;;10.03;;
27576;SDS011;15011;53.380;10.034;2023-06-19T02:50:45;11.37;;;10.27;;
27576;SDS011;15011;53.380;10.034;2023-06-19T02:55:45;11.00;;;10.00;;
27576;SDS011;15011;53.380;10.034;2023-06-19T03:00:46;10.27;;;9.17;;
27576;SDS011;15011;53.380;10.034;2023-06-19T03:05:46;12.43;;;11.13;;
27576;SDS011;15011;53.380;10.034;2023-06-19T03:10:47;11.30;;;10.30;;
27576;SDS011;15011;53.380;10.034;2023-06-19T03:15:47;11.63;;;10.30;;
27576;SDS011;15011;53.380;10.034;2023-06-19T03:20:48;11.68;;;10.57;;
27576;SDS011;15011;53.380;10.034;2023-06-19T03:25:48;11.57;;;10.57;;
27576;SDS011;15011;53.380;10.034;2023-06-19T03:30:49;12.83;;;10.77;;
27576;SDS011;15011;53.380;10.034;2023-06-19T03:35:50;11.43;;;10.32;;
27576;SDS011;15011;53.380;10.034;2023-06-19T03:40:50;11.60;;;10.50;;
27576;SDS011;15011;53.380;10.034;2023-06-19T03:45:51;11.30;;;10.20;;
27576;SDS011;15011;53.380;10.034;2023-06-19T03:50:51;11.27;;;10.27;;
27576;SDS011;15011;53.380;10.034;2023-06-19T03:55:51;12.37;;;11.00;;
27576;SDS011;15011;53.380;10.034;2023-06-19T04:00:52;12.90;;;11.33;;
27576;SDS011;15011;53.380;10.034;2023-06-19T04:05:52;11.73;;;10.63;;
27576;SDS011;15011;53.380;10.034;2023-06-19T04:10:53;11.57;;;10.57;;
27576;SDS011;15011;53.380;10.034;2023-06-19T04:15:53;11.40;;;10.30;;
27576;SDS011;15011;53.380;10.034;2023-06-19T04:20:53;11.70;;;10.60;;
27576;SDS011;15011;53.380;10.034;2023-06-19T04:25:54;11.23;;;10.13;;
27576;SDS011;15011;53.380;10.034;2023-06-19T04:30:54;11.43;;;10.33;;
27576;SDS011;15011;53.380;10.034;2023-06-19T04:36:00;10.65;;;9.70;;
27576;SDS011;15011;53.380;10.034;2023-06-19T04:41:00;10.77;;;9.77;;
27576;SDS011;15011;53.380;10.034;2023-06-19T04:46:00;11.57;;;10.37;;
27576;SDS011;15011;53.380;10.034;2023-06-19T04:51:03;11.80;;;10.65;;
27576;SDS011;15011;53.380;10.034;2023-06-19T04:56:04;11.83;;;10.73;;
27576;SDS011;15011;53.380;10.034;2023-06-19T05:01:04;11.93;;;10.83;;
27576;SDS011;15011;53.380;10.034;2023-06-19T05:06:05;11.73;;;10.63;;
27576;SDS011;15011;53.380;10.034;2023-06-19T05:11:05;12.33;;;10.67;;
27576;SDS011;15011;53.380;10.034;2023-06-19T05:16:05;11.33;;;10.17;;
27576;SDS011;15011;53.380;10.034;2023-06-19T05:21:06;11.30;;;10.20;;
27576;SDS011;15011;53.380;10.034;2023-06-19T05:26:06;12.83;;;11.57;;
27576;SDS011;15011;53.380;10.034;2023-06-19T05:31:07;12.27;;;11.07;;
27576;SDS011;15011;53.380;10.034;2023-06-19T05:36:07;14.77;;;11.97;;
27576;SDS011;15011;53.380;10.034;2023-06-19T05:41:07;11.90;;;10.80;;
27576;SDS011;15011;53.380;10.034;2023-06-19T05:46:08;12.45;;;11.20;;
27576;SDS011;15011;53.380;10.034;2023-06-19T05:51:08;12.23;;;10.97;;
27576;SDS011;15011;53.380;10.034;2023-06-19T05:56:08;12.83;;;11.63;;
27576;SDS011;15011;53.380;10.034;2023-06-19T06:01:09;13.07;;;11.87;;
27576;SDS011;15011;53.380;10.034;2023-06-19T06:06:09;12.90;;;11.57;;
27576;SDS011;15011;53.380;10.034;2023-06-19T06:11:10;12.18;;;10.98;;
27576;SDS011;15011;53.380;10.034;2023-06-19T06:16:10;11.53;;;10.53;;
27576;SDS011;15011;53.380;10.034;2023-06-19T06:21:11;13.50;;;12.20;;
27576;SDS011;15011;53.380;10.034;2023-06-19T06:26:13;12.10;;;10.98;;
27576;SDS011;15011;53.380;10.034;2023-06-19T06:31:14;13.80;;;12.48;;
27576;SDS011;15011;53.380;10.034;2023-06-19T06:36:15;12.97;;;11.67;;
27576;SDS011;15011;53.380;10.034;2023-06-19T06:41:15;13.15;;;12.05;;
27576;SDS011;15011;53.380;10.034;2023-06-19T06:46:16;12.53;;;11.43;;
27576;SDS011;15011;53.380;10.034;2023-06-19T06:51:16;12.10;;;11.00;;
27576;SDS011;15011;53.380;10.034;2023-06-19T06:56:17;12.43;;;10.53;;
27576;SDS011;15011;53.380;10.034;2023-06-19T07:01:17;13.07;;;11.87;;
27576;SDS011;15011;53.380;10.034;2023-06-19T07:06:17;13.20;;;11.90;;
27576;SDS011;15011;53.380;10.034;2023-06-19T07:11:18;11.88;;;10.77;;
27576;SDS011;15011;53.380;10.034;2023-06-19T07:16:18;11.83;;;10.73;;
27576;SDS011;15011;53.380;10.034;2023-06-19T07:21:19;12.63;;;11.53;;
27576;SDS011;15011;53.380;10.034;2023-06-19T07:26:19;12.70;;;11.60;;
27576;SDS011;15011;53.380;10.034;2023-06-19T07:31:19;13.17;;;11.93;;
27576;SDS011;15011;53.380;10.034;2023-06-19T07:36:20;15.60;;;11.77;;
27576;SDS011;15011;53.380;10.034;2023-06-19T07:41:20;12.23;;;11.13;;
27576;SDS011;15011;53.380;10.034;2023-06-19T07:46:21;11.77;;;10.67;;
27576;SDS011;15011;53.380;10.034;2023-06-19T07:51:21;11.37;;;10.37;;
27576;SDS011;15011;53.380;10.034;2023-06-19T07:56:22;11.98;;;10.80;;
27576;SDS011;15011;53.380;10.034;2023-06-19T08:01:22;13.40;;;12.20;;
27576;SDS011;15011;53.380;10.034;2023-06-19T08:06:23;12.83;;;11.73;;
27576;SDS011;15011;53.380;10.034;2023-06-19T08:11:24;11.10;;;10.10;;
27576;SDS011;15011;53.380;10.034;2023-06-19T08:16:24;12.20;;;11.00;;
27576;SDS011;15011;53.380;10.034;2023-06-19T08:21:26;12.38;;;11.27;;
27576;SDS011;15011;53.380;10.034;2023-06-19T08:26:26;11.27;;;10.20;;
27576;SDS011;15011;53.380;10.034;2023-06-19T08:31:26;11.30;;;10.23;;
27576;SDS011;15011;53.380;10.034;2023-06-19T08:36:30;12.48;;;11.38;;
27576;SDS011;15011;53.380;10.034;2023-06-19T08:41:30;12.30;;;11.10;;
27576;SDS011;15011;53.380;10.034;2023-06-19T08:46:31;12.53;;;11.43;;
27576;SDS011;15011;53.380;10.034;2023-06-19T08:51:31;11.07;;;10.07;;
27576;SDS011;15011;53.380;10.034;2023-06-19T08:56:33;11.27;;;10.27;;
27576;SDS011;15011;53.380;10.034;2023-06-19T09:01:34;9.90;;;9.13;;
27576;SDS011;15011;53.380;10.034;2023-06-19T09:06:34;10.67;;;9.57;;
27576;SDS011;15011;53.380;10.034;2023-06-19T09:11:38;10.27;;;9.40;;
27576;SDS011;15011;53.380;10.034;2023-06-19T09:16:43;11.15;;;10.13;;
27576;SDS011;15011;53.380;10.034;2023-06-19T09:21:43;10.70;;;9.70;;
27576;SDS011;15011;53.380;10.034;2023-06-19T09:26:44;10.35;;;9.50;;
27576;SDS011;15011;53.380;10.034;2023-06-19T09:31:44;11.93;;;10.03;;
27576;SDS011;15011;53.380;10.034;2023-06-19T09:36:45;10.20;;;9.30;;
27576;SDS011;15011;53.380;10.034;2023-06-19T09:41:45;11.85;;;10.55;;
27576;SDS011;15011;53.380;10.034;2023-06-19T09:46:46;10.10;;;9.20;;
27576;SDS011;15011;53.380;10.034;2023-06-19T09:51:48;10.48;;;9.52;;
27576;SDS011;15011;53.380;10.034;2023-06-19T09:56:51;10.48;;;9.48;;
27576;SDS011;15011;53.380;10.034;2023-06-19T10:01:55;10.52;;;9.63;;
27576;SDS011;15011;53.380;10.034;2023-06-19T10:06:56;9.95;;;9.05;;
27576;SDS011;15011;53.380;10.034;2023-06-19T10:11:57;10.23;;;9.32;;
27576;SDS011;15011;53.380;10.034;2023-06-19T10:17:07;9.83;;;8.93;;
27576;SDS011;15011;53.380;10.034;2023-06-19T10:22:08;9.10;;;8.30;;
27576;SDS011;15011;53.380;10.034;2023-06-19T10:27:21;10.43;;;9.48;;
27576;SDS011;15011;53.380;10.034;2023-06-19T10:32:26;10.40;;;9.38;;
27576;SDS011;15011;53.380;10.034;2023-06-19T10:37:32;9.38;;;8.57;;
27576;SDS011;15011;53.380;10.034;2023-06-19T10:42:33;9.48;;;8.68;;
27576;SDS011;15011;53.380;10.034;2023-06-19T10:47:33;11.13;;;10.23;;
27576;SDS011;15011;53.380;10.034;2023-06-19T10:52:34;10.70;;;9.60;;
27576;SDS011;15011;53.380;10.034;2023-06-19T10:57:34;9.90;;;9.00;;
27576;SDS011;15011;53.380;10.034;2023-06-19T11:02:34;10.10;;;9.10;;
27576;SDS011;15011;53.380;10.034;2023-06-19T11:07:35;9.80;;;9.00;;
27576;SDS011;15011;53.380;10.034;2023-06-19T11:12:35;10.60;;;9.60;;
27576;SDS011;15011;53.380;10.034;2023-06-19T11:17:37;9.73;;;8.73;;
27576;SDS011;15011;53.380;10.034;2023-06-19T11:22:38;9.63;;;8.73;;
27576;SDS011;15011;53.380;10.034;2023-06-19T11:27:40;9.02;;;8.23;;
27576;SDS011;15011;53.380;10.034;2023-06-19T11:32:41;9.10;;;8.30;;
27576;SDS011;15011;53.380;10.034;2023-06-19T11:37:42;7.90;;;7.07;;
27576;SDS011;15011;53.380;10.034;2023-06-19T11:42:44;6.68;;;6.00;;
27576;SDS011;15011;53.380;10.034;2023-06-19T11:47:48;7.30;;;6.60;;
27576;SDS011;15011;53.380;10.034;2023-06-19T11:52:50;7.65;;;6.95;;
27576;SDS011;15011;53.380;10.034;2023-06-19T11:57:50;7.10;;;6.50;;
27576;SDS011;15011;53.380;10.034;2023-06-19T12:02:50;6.95;;;6.38;;
27576;SDS011;15011;53.380;10.034;2023-06-19T12:07:52;7.38;;;6.68;;
27576;SDS011;15011;53.380;10.034;2023-06-19T12:12:53;6.82;;;6.13;;
27576;SDS011;15011;53.380;10.034;2023-06-19T12:17:53;7.00;;;6.17;;
27576;SDS011;15011;53.380;10.034;2023-06-19T12:22:54;7.27;;;6.67;;
27576;SDS011;15011;53.380;10.034;2023-06-19T12:27:55;8.05;;;7.00;;
27576;SDS011;15011;53.380;10.034;2023-06-19T12:32:56;7.30;;;6.60;;
27576;SDS011;15011;53.380;10.034;2023-06-19T12:37:56;7.33;;;6.63;;
27576;SDS011;15011;53.380;10.034;2023-06-19T12:42:56;7.13;;;6.43;;
27576;SDS011;15011;53.380;10.034;2023-06-19T12:47:57;5.43;;;4.93;;
27576;SDS011;15011;53.380;10.034;2023-06-19T12:52:58;5.63;;;4.47;;
27576;SDS011;15011;53.380;10.034;2023-06-19T12:57:58;5.88;;;4.60;;
27576;SDS011;15011;53.380;10.034;2023-06-19T13:02:59;5.57;;;4.97;;
27576;SDS011;15011;53.380;10.034;2023-06-19T13:07:59;5.68;;;3.75;;
27576;SDS011;15011;53.380;10.034;2023-06-19T13:12:59;4.07;;;3.67;;
27576;SDS011;15011;53.380;10.034;2023-06-19T13:18:00;3.83;;;3.37;;
27576;SDS011;15011;53.380;10.034;2023-06-19T13:23:00;3.83;;;3.53;;
27576;SDS011;15011;53.380;10.034;2023-06-19T13:28:01;3.90;;;2.92;;
27576;SDS011;15011;53.380;10.034;2023-06-19T13:33:01;3.53;;;3.23;;
27576;SDS011;15011;53.380;10.034;2023-06-19T13:38:02;5.97;;;4.03;;
27576;SDS011;15011;53.380;10.034;2023-06-19T13:43:03;4.87;;;3.47;;
27576;SDS011;15011;53.380;10.034;2023-06-19T13:48:06;3.85;;;3.28;;
27576;SDS011;15011;53.380;10.034;2023-06-19T13:53:06;3.65;;;3.33;;
27576;SDS011;15011;53.380;10.034;2023-06-19T13:58:07;5.97;;;4.07;;
27576;SDS011;15011;53.380;10.034;2023-06-19T14:03:07;4.47;;;4.07;;
27576;SDS011;15011;53.380;10.034;2023-06-19T14:08:08;6.73;;;4.70;;
27576;SDS011;15011;53.380;10.034;2023-06-19T14:13:09;5.18;;;4.78;;
27576;SDS011;15011;53.380;10.034;2023-06-19T14:18:09;5.75;;;4.28;;
27576;SDS011;15011;53.380;10.034;2023-06-19T14:23:10;6.07;;;4.38;;
27576;SDS011;15011;53.380;10.034;2023-06-19T14:28:10;4.17;;;3.83;;
27576;SDS011;15011;53.380;10.034;2023-06-19T14:33:11;4.70;;;3.23;;
27576;SDS011;15011;53.380;10.034;2023-06-19T14:38:15;4.25;;;3.85;;
27576;SDS011;15011;53.380;10.034;2023-06-19T14:43:15;5.82;;;5.30;;
27576;SDS011;15011;53.380;10.034;2023-06-19T14:48:16;6.10;;;5.57;;
27576;SDS011;15011;53.380;10.034;2023-06-19T14:53:16;6.60;;;5.90;;
27576;SDS011;15011;53.380;10.034;2023-06-19T14:58:16;4.63;;;4.33;;
27576;SDS011;15011;53.380;10.034;2023-06-19T15:03:17;4.23;;;3.53;;
27576;SDS011;15011;53.380;10.034;2023-06-19T15:08:17;6.43;;;3.20;;
27576;SDS011;15011;53.380;10.034;2023-06-19T15:13:21;5.80;;;3.78;;
27576;SDS011;15011;53.380;10.034;2023-06-19T15:18:23;5.10;;;3.85;;
27576;SDS011;15011;53.380;10.034;2023-06-19T15:23:27;4.72;;;4.18;;
27576;SDS011;15011;53.380;10.034;2023-06-19T15:28:27;5.73;;;4.90;;
27576;SDS011;15011;53.380;10.034;2023-06-19T15:33:28;5.87;;;5.27;;
27576;SDS011;15011;53.380;10.034;2023-06-19T15:38:28;5.70;;;5.20;;
27576;SDS011;15011;53.380;10.034;2023-06-19T15:43:29;5.60;;;5.10;;
27576;SDS011;15011;53.380;10.034;2023-06-19T15:48:30;5.65;;;5.05;;
27576;SDS011;15011;53.380;10.034;2023-06-19T15:53:31;5.07;;;4.60;;
27576;SDS011;15011;53.380;10.034;2023-06-19T15:58:32;5.10;;;4.60;;
27576;SDS011;15011;53.380;10.034;2023-06-19T16:03:32;5.43;;;4.90;;
27576;SDS011;15011;53.380;10.034;2023-06-19T16:08:33;5.13;;;4.63;;
27576;SDS011;15011;53.380;10.034;2023-06-19T16:13:33;4.67;;;4.20;;
27576;SDS011;15011;53.380;10.034;2023-06-19T16:18:34;5.07;;;4.57;;
27576;SDS011;15011;53.380;10.034;2023-06-19T16:23:34;5.10;;;4.50;;
27576;SDS011;15011;53.380;10.034;2023-06-19T16:28:35;4.97;;;4.57;;
27576;SDS011;15011;53.380;10.034;2023-06-19T16:33:36;4.73;;;4.33;;
27576;SDS011;15011;53.380;10.034;2023-06-19T16:38:38;4.88;;;4.47;;
27576;SDS011;15011;53.380;10.034;2023-06-19T16:43:40;4.93;;;4.60;;
27576;SDS011;15011;53.380;10.034;2023-06-19T16:48:40;6.93;;;5.07;;
27576;SDS011;15011;53.380;10.034;2023-06-19T16:53:40;5.07;;;4.68;;
27576;SDS011;15011;53.380;10.034;2023-06-19T16:58:41;4.63;;;4.30;;
27576;SDS011;15011;53.380;10.034;2023-06-19T17:03:41;4.43;;;4.10;;
27576;SDS011;15011;53.380;10.034;2023-06-19T17:08:41;4.80;;;4.47;;
27576;SDS011;15011;53.380;10.034;2023-06-19T17:13:42;4.40;;;4.00;;
27576;SDS011;15011;53.380;10.034;2023-06-19T17:18:42;5.27;;;4.87;;
27576;SDS011;15011;53.380;10.034;2023-06-19T17:23:43;4.73;;;4.37;;
27576;SDS011;15011;53.380;10.034;2023-06-19T17:28:43;4.17;;;3.87;;
27576;SDS011;15011;53.380;10.034;2023-06-19T17:33:43;4.63;;;4.22;;
27576;SDS011;15011;53.380;10.034;2023-06-19T17:38:44;4.67;;;4.27;;
27576;SDS011;15011;53.380;10.034;2023-06-19T17:43:44;4.90;;;4.40;;
27576;SDS011;15011;53.380;10.034;2023-06-19T17:48:45;5.03;;;4.57;;
27576;SDS011;15011;53.380;10.034;2023-06-19T17:53:45;5.57;;;4.97;;
27576;SDS011;15011;53.380;10.034;2023-06-19T17:58:45;4.87;;;4.47;;
27576;SDS011;15011;53.380;10.034;2023-06-19T18:03:46;5.97;;;4.60;;
27576;SDS011;15011;53.380;10.034;2023-06-19T18:08:46;5.63;;;4.37;;
27576;SDS011;15011;53.380;10.034;2023-06-19T18:13:47;5.15;;;4.65;;
27576;SDS011;15011;53.380;10.034;2023-06-19T18:18:47;4.53;;;4.13;;
27576;SDS011;15011;53.380;10.034;2023-06-19T18:23:48;4.77;;;4.37;;
27576;SDS011;15011;53.380;10.034;2023-06-19T18:28:48;4.60;;;4.00;;
27576;SDS011;15011;53.380;10.034;2023-06-19T18:33:49;25.42;;;5.75;;
27576;SDS011;15011;53.380;10.034;2023-06-19T18:38:50;4.00;;;3.67;;
27576;SDS011;15011;53.380;10.034;2023-06-19T18:43:50;5.47;;;4.30;;
27576;SDS011;15011;53.380;10.034;2023-06-19T18:48:50;6.37;;;5.00;;
27576;SDS011;15011;53.380;10.034;2023-06-19T18:53:51;6.10;;;5.30;;
27576;SDS011;15011;53.380;10.034;2023-06-19T18:58:51;5.70;;;5.20;;
27576;SDS011;15011;53.380;10.034;2023-06-19T19:03:52;6.37;;;5.77;;
27576;SDS011;15011;53.380;10.034;2023-06-19T19:08:52;6.77;;;6.07;;
27576;SDS011;15011;53.380;10.034;2023-06-19T19:13:56;6.03;;;5.43;;
27576;SDS011;15011;53.380;10.034;2023-06-19T19:18:56;5.87;;;5.37;;
27576;SDS011;15011;53.380;10.034;2023-06-19T19:23:57;6.40;;;5.80;;
27576;SDS011;15011;53.380;10.034;2023-06-19T19:28:57;5.63;;;5.13;;
27576;SDS011;15011;53.380;10.034;2023-06-19T19:33:58;9.07;;;7.82;;
27576;SDS011;15011;53.380;10.034;2023-06-19T19:38:58;6.17;;;5.40;;
27576;SDS011;15011;53.380;10.034;2023-06-19T19:43:58;7.07;;;6.37;;
27576;SDS011;15011;53.380;10.034;2023-06-19T19:48:59;7.83;;;5.73;;
27576;SDS011;15011;53.380;10.034;2023-06-19T19:53:59;6.13;;;5.27;;
27576;SDS011;15011;53.380;10.034;2023-06-19T19:58:59;5.97;;;5.23;;
27576;SDS011;15011;53.380;10.034;2023-06-19T20:04:00;5.50;;;5.00;;
27576;SDS011;15011;53.380;10.034;2023-06-19T20:09:00;6.20;;;5.00;;
27576;SDS011;15011;53.380;10.034;2023-06-19T20:14:00;7.03;;;5.40;;
27576;SDS011;15011;53.380;10.034;2023-06-19T20:19:01;8.02;;;5.30;;
27576;SDS011;15011;53.380;10.034;2023-06-19T20:24:02;6.22;;;5.55;;
27576;SDS011;15011;53.380;10.034;2023-06-19T20:29:02;7.13;;;6.20;;
27576;SDS011;15011;53.380;10.034;2023-06-19T20:34:03;5.57;;;5.07;;
27576;SDS011;15011;53.380;10.034;2023-06-19T20:39:03;5.70;;;5.10;;
27576;SDS011;15011;53.380;10.034;2023-06-19T20:44:06;15.30;;;6.47;;
27576;SDS011;15011;53.380;10.034;2023-06-19T20:49:06;8.20;;;5.93;;
27576;SDS011;15011;53.380;10.034;2023-06-19T20:54:06;6.97;;;6.30;;
27576;SDS011;15011;53.380;10.034;2023-06-19T20:59:07;7.15;;;5.63;;
27576;SDS011;15011;53.380;10.034;2023-06-19T21:04:07;6.50;;;5.70;;
27576;SDS011;15011;53.380;10.034;2023-06-19T21:09:08;8.90;;;6.87;;
27576;SDS011;15011;53.380;10.034;2023-06-19T21:14:08;7.97;;;6.47;;
27576;SDS011;15011;53.380;10.034;2023-06-19T21:19:08;9.27;;;6.90;;
27576;SDS011;15011;53.380;10.034;2023-06-19T21:24:09;8.50;;;6.80;;
27576;SDS011;15011;53.380;10.034;2023-06-19T21:29:09;8.00;;;6.10;;
27576;SDS011;15011;53.380;10.034;2023-06-19T21:34:10;8.77;;;7.10;;
27576;SDS011;15011;53.380;10.034;2023-06-19T21:39:10;8.73;;;7.13;;
27576;SDS011;15011;53.380;10.034;2023-06-19T21:44:10;10.63;;;6.97;;
27576;SDS011;15011;53.380;10.034;2023-06-19T21:49:11;9.10;;;7.13;;
27576;SDS011;15011;53.380;10.034;2023-06-19T21:54:11;9.83;;;7.83;;
27576;SDS011;15011;53.380;10.034;2023-06-19T21:59:11;8.30;;;7.27;;
27576;SDS011;15011;53.380;10.034;2023-06-19T22:04:12;8.70;;;7.27;;
27576;SDS011;15011;53.380;10.034;2023-06-19T22:09:14;9.35;;;6.53;;
27576;SDS011;15011;53.380;10.034;2023-06-19T22:14:15;7.77;;;6.80;;
27576;SDS011;15011;53.380;10.034;2023-06-19T22:19:15;10.00;;;7.50;;
27576;SDS011;15011;53.380;10.034;2023-06-19T22:24:15;9.83;;;7.57;;
27576;SDS011;15011;53.380;10.034;2023-06-19T22:29:16;7.97;;;7.17;;
27576;SDS011;15011;53.380;10.034;2023-06-19T22:34:16;8.53;;;7.00;;
27576;SDS011;15011;53.380;10.034;2023-06-19T22:39:16;8.90;;;7.40;;
27576;SDS011;15011;53.380;10.034;2023-06-19T22:44:17;10.83;;;7.50;;
27576;SDS011;15011;53.380;10.034;2023-06-19T22:49:17;8.63;;;6.77;;
27576;SDS011;15011;53.380;10.034;2023-06-19T22:54:18;8.47;;;7.30;;
27576;SDS011;15011;53.380;10.034;2023-06-19T22:59:19;9.90;;;7.30;;
27576;SDS011;15011;53.380;10.034;2023-06-19T23:04:20;10.20;;;8.37;;
27576;SDS011;15011;53.380;10.034;2023-06-19T23:09:20;9.48;;;7.65;;
27576;SDS011;15011;53.380;10.034;2023-06-19T23:14:21;9.00;;;7.60;;
27576;SDS011;15011;53.380;10.034;2023-06-19T23:19:21;9.47;;;7.77;;
27576;SDS011;15011;53.380;10.034;2023-06-19T23:24:22;13.10;;;11.85;;
27576;SDS011;15011;53.380;10.034;2023-06-19T23:29:22;9.67;;;8.57;;
27576;SDS011;15011;53.380;10.034;2023-06-19T23:34:23;9.43;;;7.60;;
27576;SDS011;15011;53.380;10.034;2023-06-19T23:39:24;9.95;;;8.00;;
27576;SDS011;15011;53.380;10.034;2023-06-19T23:44:24;10.93;;;8.25;;
27576;SDS011;15011;53.380;10.034;2023-06-19T23:49:25;11.63;;;8.80;;
27576;SDS011;15011;53.380;10.034;2023-06-19T23:54:25;11.17;;;7.37;;
27576;SDS011;15011;53.380;10.034;2023-06-19T23:59:26;8.83;;;7.57;;
